Time;durP1;ratioP1;P1;durP2;ratioP2;P2;SDS_P1;SDS_P2;PMS_P1;PMS_P2;Temp;Humidity;BMP_temperature;BMP_pressure;BME280_temperature;BME280_humidity;BME280_pressure;Samples;Min_cycle;Max_cycle;Signal;HPM_P1;HPM_P2
2020/12/30 00:01:25;;;;;;;6.93;6.22;;;1.90;99.90;;;;;;5073363;28;20217;-75
2020/12/30 00:03:51;;;;;;;7.55;5.95;;;1.90;99.90;;;;;;5073077;28;20261;-75
2020/12/30 00:06:18;;;;;;;7.13;6.43;;;1.90;99.90;;;;;;5073997;28;20182;-75
2020/12/30 00:08:48;;;;;;;5.38;3.97;;;1.80;99.90;;;;;;5073517;28;20181;-75
2020/12/30 00:11:15;;;;;;;5.55;4.65;;;1.80;99.90;;;;;;5066409;28;20534;-75
2020/12/30 00:13:41;;;;;;;4.82;3.80;;;1.80;99.90;;;;;;5073438;28;20232;-75
2020/12/30 00:16:07;;;;;;;3.30;3.10;;;1.80;99.90;;;;;;5073586;28;20540;-75
2020/12/30 00:18:32;;;;;;;5.67;3.40;;;1.70;99.90;;;;;;5073593;28;20182;-75
2020/12/30 00:20:58;;;;;;;4.17;3.87;;;1.70;99.90;;;;;;5072960;28;20182;-75
2020/12/30 00:23:24;;;;;;;4.57;2.90;;;1.70;99.90;;;;;;5073246;28;20201;-75
2020/12/30 00:25:50;;;;;;;3.92;3.25;;;1.60;99.90;;;;;;5073166;28;20536;-75
2020/12/30 00:28:16;;;;;;;2.90;2.70;;;1.60;99.90;;;;;;5073440;28;20594;-75
2020/12/30 00:30:42;;;;;;;5.30;3.60;;;1.60;99.90;;;;;;5074811;28;20304;-75
2020/12/30 00:33:07;;;;;;;2.60;2.40;;;1.60;99.90;;;;;;5077690;28;20553;-76
2020/12/30 00:35:33;;;;;;;2.90;2.70;;;1.60;99.90;;;;;;5072901;28;20832;-75
2020/12/30 00:37:58;;;;;;;2.73;2.43;;;1.60;99.90;;;;;;5073185;28;20189;-74
2020/12/30 00:40:24;;;;;;;4.00;2.70;;;1.60;99.90;;;;;;5072542;28;20185;-75
2020/12/30 00:42:49;;;;;;;2.73;2.50;;;1.60;99.90;;;;;;5072921;28;20672;-74
2020/12/30 00:45:15;;;;;;;4.40;3.37;;;1.60;99.90;;;;;;5072884;28;20186;-75
2020/12/30 00:47:40;;;;;;;3.23;2.83;;;1.60;99.90;;;;;;5072619;28;20889;-75
2020/12/30 00:50:06;;;;;;;3.03;2.43;;;1.60;99.90;;;;;;5072795;28;20221;-75
2020/12/30 00:52:33;;;;;;;2.58;2.28;;;1.60;99.90;;;;;;5072086;28;20269;-75
2020/12/30 00:54:58;;;;;;;2.53;2.30;;;1.60;99.90;;;;;;5072370;28;20177;-75
2020/12/30 00:57:24;;;;;;;3.10;2.80;;;1.70;99.90;;;;;;5072627;28;20608;-74
2020/12/30 00:59:49;;;;;;;3.70;3.17;;;1.80;99.90;;;;;;5072542;28;20272;-75
2020/12/30 01:02:15;;;;;;;2.70;2.20;;;1.80;99.90;;;;;;5072361;28;20186;-74
2020/12/30 01:04:41;;;;;;;2.87;2.67;;;1.90;99.90;;;;;;5072466;28;20680;-75
2020/12/30 01:07:07;;;;;;;5.07;3.53;;;2.00;99.90;;;;;;5072725;28;20173;-75
2020/12/30 01:09:32;;;;;;;3.77;2.63;;;2.10;99.90;;;;;;5072586;28;20217;-74
2020/12/30 01:12:03;;;;;;;2.60;2.33;;;2.20;99.90;;;;;;5072203;28;20183;-75
2020/12/30 01:14:29;;;;;;;5.07;3.30;;;2.30;99.90;;;;;;5072340;28;20673;-75
2020/12/30 01:16:55;;;;;;;2.90;2.70;;;2.30;99.90;;;;;;5072332;28;20201;-75
2020/12/30 01:19:22;;;;;;;2.63;2.37;;;2.30;99.90;;;;;;5072468;28;20208;-75
2020/12/30 01:21:48;;;;;;;3.15;2.42;;;2.40;99.90;;;;;;5072156;28;20425;-75
2020/12/30 01:24:14;;;;;;;3.47;3.17;;;2.40;99.90;;;;;;5072003;28;20190;-74
2020/12/30 01:26:40;;;;;;;3.17;2.87;;;2.50;99.90;;;;;;5072136;28;20243;-75
2020/12/30 01:29:06;;;;;;;4.30;3.40;;;2.50;99.90;;;;;;5072455;28;20472;-75
2020/12/30 01:31:32;;;;;;;3.15;2.85;;;2.50;99.90;;;;;;5071168;28;20185;-75
2020/12/30 01:33:58;;;;;;;3.22;2.92;;;2.50;99.90;;;;;;5072369;28;20610;-75
2020/12/30 01:36:24;;;;;;;3.97;3.05;;;2.50;99.90;;;;;;5072111;28;20217;-75
2020/12/30 01:38:51;;;;;;;3.70;3.40;;;2.60;99.90;;;;;;5072194;28;20213;-75
2020/12/30 01:41:17;;;;;;;3.28;2.88;;;2.60;99.90;;;;;;5071881;28;20454;-75
2020/12/30 01:44:15;;;;;;;3.80;3.33;;;2.50;99.90;;;;;;5071870;28;20265;-75
2020/12/30 01:46:43;;;;;;;2.95;2.72;;;2.50;99.90;;;;;;5051675;28;20444;-75
2020/12/30 01:49:16;;;;;;;3.45;2.50;;;2.40;99.90;;;;;;5070215;28;20693;-75
2020/12/30 01:51:42;;;;;;;2.78;2.47;;;2.40;99.90;;;;;;5071777;28;20210;-75
2020/12/30 01:54:11;;;;;;;3.70;2.80;;;2.30;99.90;;;;;;5071654;28;20182;-74
2020/12/30 01:56:38;;;;;;;3.10;2.80;;;2.30;99.90;;;;;;5071865;28;20549;-74
2020/12/30 01:59:09;;;;;;;3.72;3.30;;;2.30;99.90;;;;;;5071868;28;20182;-75
2020/12/30 02:01:38;;;;;;;4.85;3.85;;;2.30;99.90;;;;;;5071860;28;20186;-75
2020/12/30 02:04:06;;;;;;;3.30;2.90;;;2.40;99.90;;;;;;5064054;28;20190;-75
2020/12/30 02:06:32;;;;;;;2.95;2.63;;;2.40;99.90;;;;;;5071913;28;20186;-75
2020/12/30 02:08:58;;;;;;;2.60;2.40;;;2.40;99.90;;;;;;5071610;28;20217;-75
2020/12/30 02:11:25;;;;;;;3.43;2.90;;;2.40;99.90;;;;;;5071833;28;20216;-77
2020/12/30 02:14:13;;;;;;;3.67;3.33;;;2.40;99.90;;;;;;5071231;28;20511;-74
2020/12/30 02:16:50;;;;;;;3.83;2.60;;;2.40;99.90;;;;;;5071369;28;20583;-75
2020/12/30 02:19:16;;;;;;;3.40;3.10;;;2.50;99.90;;;;;;5071478;28;20264;-75
2020/12/30 02:21:42;;;;;;;3.63;2.97;;;2.50;99.90;;;;;;5071817;28;20257;-75
2020/12/30 02:24:17;;;;;;;2.75;2.55;;;2.50;99.90;;;;;;5071099;28;20431;-74
2020/12/30 02:26:43;;;;;;;3.13;2.75;;;2.50;99.90;;;;;;5071529;28;20181;-75
2020/12/30 02:29:08;;;;;;;3.23;2.83;;;2.50;99.90;;;;;;5071739;28;20288;-75
2020/12/30 02:31:34;;;;;;;5.30;2.63;;;2.50;99.90;;;;;;5071762;28;20613;-75
2020/12/30 02:33:59;;;;;;;2.63;2.30;;;2.50;99.90;;;;;;5071531;28;20214;-75
2020/12/30 02:36:25;;;;;;;2.80;2.60;;;2.50;99.90;;;;;;5071392;28;20198;-75
2020/12/30 02:38:52;;;;;;;2.43;2.23;;;2.50;99.90;;;;;;5071455;28;20186;-75
2020/12/30 02:41:18;;;;;;;4.18;3.70;;;2.40;99.90;;;;;;5071316;28;20273;-74
2020/12/30 02:43:45;;;;;;;2.55;2.13;;;2.40;99.90;;;;;;5074573;28;20178;-74
2020/12/30 02:46:11;;;;;;;2.45;2.15;;;2.40;99.90;;;;;;5075169;28;20182;-75
2020/12/30 02:48:36;;;;;;;2.73;2.20;;;2.40;99.90;;;;;;5075029;28;20241;-75
2020/12/30 02:51:02;;;;;;;3.80;2.50;;;2.40;99.90;;;;;;5075429;28;20218;-75
2020/12/30 02:53:27;;;;;;;3.20;2.90;;;2.40;99.90;;;;;;5074759;28;20679;-75
2020/12/30 02:55:52;;;;;;;2.33;2.10;;;2.40;99.90;;;;;;5075125;28;20201;-75
2020/12/30 02:58:18;;;;;;;2.30;2.10;;;2.40;99.90;;;;;;5074790;28;20216;-74
2020/12/30 03:00:43;;;;;;;3.50;2.57;;;2.40;99.90;;;;;;5074934;28;20232;-75
2020/12/30 03:03:09;;;;;;;2.73;2.53;;;2.40;99.90;;;;;;5075212;28;20243;-74
2020/12/30 03:05:34;;;;;;;3.00;2.80;;;2.40;99.90;;;;;;5074676;28;20178;-75
2020/12/30 03:08:00;;;;;;;3.40;3.10;;;2.40;99.90;;;;;;5074733;28;20177;-75
2020/12/30 03:10:25;;;;;;;2.60;2.27;;;2.40;99.90;;;;;;5074947;28;20217;-75
2020/12/30 03:12:51;;;;;;;2.27;2.07;;;2.40;99.90;;;;;;5074825;28;20231;-75
2020/12/30 03:15:17;;;;;;;2.78;2.58;;;2.40;99.90;;;;;;5074812;28;20194;-74
2020/12/30 03:17:43;;;;;;;2.90;2.70;;;2.40;99.90;;;;;;5074305;28;20522;-75
2020/12/30 03:20:08;;;;;;;2.33;2.13;;;2.30;99.90;;;;;;5074600;28;20182;-74
2020/12/30 03:22:34;;;;;;;3.30;2.50;;;2.30;99.90;;;;;;5074391;28;20182;-76
2020/12/30 03:24:59;;;;;;;3.47;2.70;;;2.30;99.90;;;;;;5074358;28;20234;-75
2020/12/30 03:27:25;;;;;;;2.93;2.60;;;2.30;99.90;;;;;;5074027;28;20189;-75
2020/12/30 03:29:50;;;;;;;2.63;2.43;;;2.30;99.90;;;;;;5074380;28;20696;-74
2020/12/30 03:32:16;;;;;;;2.83;2.53;;;2.20;99.90;;;;;;5074661;28;20222;-74
2020/12/30 03:34:41;;;;;;;2.30;2.10;;;2.10;99.90;;;;;;5074401;28;20197;-75
2020/12/30 03:37:06;;;;;;;3.57;2.73;;;2.10;99.90;;;;;;5074308;28;20193;-74
2020/12/30 03:39:32;;;;;;;3.20;2.63;;;2.00;99.90;;;;;;5073930;28;20582;-75
2020/12/30 03:41:57;;;;;;;2.73;2.53;;;1.90;99.90;;;;;;5078508;28;20250;-75
2020/12/30 03:44:23;;;;;;;4.37;2.80;;;1.80;99.90;;;;;;5075662;28;20656;-74
2020/12/30 03:46:48;;;;;;;3.73;2.90;;;1.70;99.90;;;;;;5073799;28;20186;-75
2020/12/30 03:49:14;;;;;;;3.00;2.60;;;1.60;99.90;;;;;;5074276;28;20313;-75
2020/12/30 03:51:39;;;;;;;2.83;2.23;;;1.60;99.90;;;;;;5073701;28;20594;-75
2020/12/30 03:54:05;;;;;;;3.03;2.73;;;1.60;99.90;;;;;;5073432;28;20189;-74
2020/12/30 03:56:30;;;;;;;2.00;1.83;;;1.60;99.90;;;;;;5073919;28;20186;-76
2020/12/30 03:58:56;;;;;;;3.10;2.30;;;1.50;99.90;;;;;;5073999;28;20181;-75
2020/12/30 04:01:21;;;;;;;2.07;1.87;;;1.50;99.90;;;;;;5074162;28;20221;-75
2020/12/30 04:03:46;;;;;;;2.27;2.00;;;1.50;99.90;;;;;;5073623;28;20645;-75
2020/12/30 04:06:12;;;;;;;2.67;2.40;;;1.50;99.90;;;;;;5073742;28;20186;-74
2020/12/30 04:08:37;;;;;;;1.73;1.63;;;1.50;99.90;;;;;;5074011;28;20264;-75
2020/12/30 04:11:03;;;;;;;2.60;2.13;;;1.40;99.90;;;;;;5073465;28;20669;-75
2020/12/30 04:13:28;;;;;;;1.73;1.63;;;1.40;99.90;;;;;;5073150;28;20185;-74
2020/12/30 04:15:54;;;;;;;2.07;1.87;;;1.40;99.90;;;;;;5073384;28;20185;-74
2020/12/30 04:18:19;;;;;;;2.20;1.60;;;1.30;99.90;;;;;;5073623;28;20193;-74
2020/12/30 04:20:45;;;;;;;2.17;1.90;;;1.30;99.90;;;;;;5073690;28;20657;-75
2020/12/30 04:23:10;;;;;;;1.90;1.80;;;1.30;99.90;;;;;;5073203;28;20640;-75
2020/12/30 04:25:36;;;;;;;3.23;2.97;;;1.30;99.90;;;;;;5073526;28;20224;-74
2020/12/30 04:28:01;;;;;;;8.47;5.07;;;1.30;99.90;;;;;;5074217;28;20181;-74
2020/12/30 04:30:27;;;;;;;5.37;3.37;;;1.30;99.90;;;;;;5073832;28;20209;-74
2020/12/30 04:32:52;;;;;;;2.90;2.23;;;1.30;99.90;;;;;;5073859;28;20663;-75
2020/12/30 04:35:18;;;;;;;2.50;2.30;;;1.40;99.90;;;;;;5073428;28;20264;-75
2020/12/30 04:37:44;;;;;;;2.13;2.03;;;1.40;99.90;;;;;;5073353;28;20182;-74
2020/12/30 04:40:10;;;;;;;2.40;2.20;;;1.40;99.90;;;;;;5073198;28;20186;-75
2020/12/30 04:42:37;;;;;;;2.30;2.05;;;1.50;99.90;;;;;;5073131;28;20192;-75
2020/12/30 04:45:09;;;;;;;2.92;2.10;;;1.50;99.90;;;;;;5072450;28;20178;-76
2020/12/30 04:47:34;;;;;;;2.80;2.42;;;1.50;99.90;;;;;;5065941;28;20220;-75
2020/12/30 04:50:02;;;;;;;2.03;1.93;;;1.50;99.90;;;;;;5072987;28;20213;-75
2020/12/30 04:52:28;;;;;;;4.32;2.20;;;1.50;99.90;;;;;;5072959;28;20170;-74
2020/12/30 04:54:54;;;;;;;2.00;1.80;;;1.50;99.90;;;;;;5072743;28;20192;-75
2020/12/30 04:57:53;;;;;;;4.45;3.38;;;1.50;99.90;;;;;;5072645;28;20433;-75
2020/12/30 05:00:20;;;;;;;3.75;3.20;;;1.50;99.90;;;;;;5072643;28;20671;-75
2020/12/30 05:02:51;;;;;;;2.80;2.45;;;1.50;99.90;;;;;;5072499;28;20238;-75
2020/12/30 05:05:19;;;;;;;3.05;2.75;;;1.50;99.90;;;;;;5072032;28;20190;-74
2020/12/30 05:07:45;;;;;;;3.83;3.15;;;1.50;99.90;;;;;;5072099;28;20661;-75
2020/12/30 05:10:14;;;;;;;3.90;2.40;;;1.40;99.90;;;;;;5072512;28;20225;-74
2020/12/30 05:12:40;;;;;;;2.95;2.25;;;1.40;99.90;;;;;;5071177;28;20184;-75
2020/12/30 05:15:06;;;;;;;3.20;2.13;;;1.40;99.90;;;;;;5072083;28;20181;-75
2020/12/30 05:17:33;;;;;;;4.37;3.07;;;1.40;99.90;;;;;;5072255;28;20213;-75
2020/12/30 05:19:59;;;;;;;3.35;3.05;;;1.40;99.90;;;;;;5072541;28;20428;-74
2020/12/30 05:22:25;;;;;;;3.00;2.60;;;1.30;99.90;;;;;;5072159;28;20174;-74
2020/12/30 05:24:50;;;;;;;4.00;3.30;;;1.30;99.90;;;;;;5072762;28;20189;-75
2020/12/30 05:27:17;;;;;;;6.10;5.50;;;1.30;99.90;;;;;;5072226;28;20182;-75
2020/12/30 05:29:49;;;;;;;5.40;4.00;;;1.40;99.90;;;;;;5064415;28;20688;-74
2020/12/30 05:32:16;;;;;;;5.45;4.00;;;1.30;99.90;;;;;;5072187;28;20186;-74
2020/12/30 05:34:42;;;;;;;3.15;2.95;;;1.30;99.90;;;;;;5072024;28;20178;-74
2020/12/30 05:37:11;;;;;;;3.03;2.70;;;1.30;99.90;;;;;;5072352;28;20174;-75
2020/12/30 05:39:36;;;;;;;4.45;2.50;;;1.30;99.90;;;;;;5072071;28;20182;-75
2020/12/30 05:42:12;;;;;;;2.53;2.33;;;1.30;99.90;;;;;;5072104;28;20189;-74
2020/12/30 05:44:39;;;;;;;2.47;2.28;;;1.30;99.90;;;;;;5072233;28;20231;-75
2020/12/30 05:47:19;;;;;;;2.55;2.13;;;1.30;99.90;;;;;;5071391;28;20276;-75
2020/12/30 05:49:46;;;;;;;3.85;2.55;;;1.30;99.90;;;;;;5071994;28;20338;-74
2020/12/30 05:52:17;;;;;;;2.00;1.90;;;1.30;99.90;;;;;;5071960;28;20272;-74
2020/12/30 05:55:05;;;;;;;1.98;1.88;;;1.30;99.90;;;;;;5071907;28;20269;-74
2020/12/30 05:57:33;;;;;;;3.15;1.70;;;1.30;99.90;;;;;;5069916;28;20199;-75
2020/12/30 06:00:08;;;;;;;2.70;2.20;;;1.30;99.90;;;;;;5072096;28;20193;-74
2020/12/30 06:02:38;;;;;;;1.85;1.65;;;1.30;99.90;;;;;;5064871;28;20185;-75
2020/12/30 06:05:20;;;;;;;2.05;1.90;;;1.30;99.90;;;;;;5071102;28;20235;-75
2020/12/30 06:07:53;;;;;;;2.30;2.10;;;1.30;99.90;;;;;;5066538;28;20270;-74
2020/12/30 06:10:20;;;;;;;1.65;1.50;;;1.40;99.90;;;;;;5071455;28;20548;-74
2020/12/30 06:12:54;;;;;;;3.25;1.85;;;1.50;99.90;;;;;;5072000;28;20537;-74
2020/12/30 06:15:29;;;;;;;2.03;1.63;;;1.50;99.90;;;;;;5071378;28;20229;-75
2020/12/30 06:17:58;;;;;;;1.88;1.58;;;1.60;99.90;;;;;;5074031;28;20227;-75
2020/12/30 06:20:32;;;;;;;1.98;1.75;;;1.70;99.90;;;;;;5075705;28;20239;-74
2020/12/30 06:23:01;;;;;;;1.80;1.70;;;1.70;99.90;;;;;;5075973;28;20189;-74
2020/12/30 06:25:47;;;;;;;7.15;3.50;;;1.80;99.90;;;;;;5073759;28;20511;-75
2020/12/30 06:28:18;;;;;;;3.35;2.53;;;1.90;99.90;;;;;;5075762;28;20235;-74
2020/12/30 06:30:48;;;;;;;4.60;2.63;;;1.90;99.90;;;;;;5075860;28;20217;-75
2020/12/30 06:33:14;;;;;;;2.70;2.47;;;2.00;99.90;;;;;;5075529;28;20635;-75
2020/12/30 06:35:42;;;;;;;2.13;2.00;;;2.00;99.90;;;;;;5075242;28;20224;-75
2020/12/30 06:38:22;;;;;;;2.45;2.17;;;2.10;99.90;;;;;;5075831;28;20533;-74
2020/12/30 06:40:55;;;;;;;2.50;2.30;;;2.10;99.90;;;;;;5068887;28;20182;-74
2020/12/30 06:43:41;;;;;;;3.08;1.83;;;2.10;99.90;;;;;;5075320;28;20186;-74
2020/12/30 06:46:08;;;;;;;2.42;1.92;;;2.20;99.90;;;;;;5075502;28;20177;-74
2020/12/30 06:48:59;;;;;;;2.53;2.33;;;2.20;99.90;;;;;;5074956;28;20601;-75
2020/12/30 06:51:25;;;;;;;2.25;1.70;;;2.20;99.90;;;;;;5074883;28;20254;-74
2020/12/30 06:53:52;;;;;;;1.98;1.88;;;2.30;99.90;;;;;;5075600;28;20532;-75
2020/12/30 06:56:44;;;;;;;2.17;1.95;;;2.30;99.90;;;;;;5074944;28;20186;-75
2020/12/30 06:59:25;;;;;;;2.28;1.88;;;2.30;99.90;;;;;;5074725;28;20182;-75
2020/12/30 07:02:02;;;;;;;3.60;2.50;;;2.30;99.90;;;;;;5068288;28;20243;-75
2020/12/30 07:04:29;;;;;;;2.30;2.10;;;2.30;99.90;;;;;;5074729;28;20588;-74
2020/12/30 07:06:55;;;;;;;2.28;2.08;;;2.30;99.90;;;;;;5075005;28;20182;-74
2020/12/30 07:09:35;;;;;;;2.43;2.20;;;2.20;99.90;;;;;;5074521;28;20607;-75
2020/12/30 07:12:09;;;;;;;2.47;1.90;;;2.20;99.90;;;;;;5069728;28;20479;-75
2020/12/30 07:14:37;;;;;;;2.63;2.05;;;2.20;99.90;;;;;;5074529;28;20597;-75
2020/12/30 07:17:04;;;;;;;2.25;2.15;;;2.20;99.90;;;;;;5074880;28;20190;-74
2020/12/30 07:19:42;;;;;;;2.50;2.30;;;2.20;99.90;;;;;;5074631;28;20189;-75
2020/12/30 07:22:08;;;;;;;3.45;2.85;;;2.20;99.90;;;;;;5074721;28;20603;-74
2020/12/30 07:24:43;;;;;;;2.25;2.15;;;2.20;99.90;;;;;;5074008;28;20217;-75
2020/12/30 07:27:11;;;;;;;4.05;2.97;;;2.20;99.90;;;;;;5074739;28;20264;-74
2020/12/30 07:29:37;;;;;;;4.10;3.70;;;2.20;99.90;;;;;;5073229;28;20224;-75
2020/12/30 07:32:05;;;;;;;2.83;2.17;;;2.20;99.90;;;;;;5074465;28;20174;-74
2020/12/30 07:34:34;;;;;;;2.60;2.08;;;2.20;99.90;;;;;;5074187;28;20302;-75
2020/12/30 07:37:01;;;;;;;2.17;1.95;;;2.20;99.90;;;;;;5067304;28;20185;-74
2020/12/30 07:39:38;;;;;;;3.53;2.30;;;2.30;99.90;;;;;;5074004;28;20213;-75
2020/12/30 07:42:03;;;;;;;2.03;1.80;;;2.30;99.90;;;;;;5069672;28;20674;-74
2020/12/30 07:44:29;;;;;;;2.80;2.30;;;2.40;99.90;;;;;;5074541;28;20267;-74
2020/12/30 07:47:05;;;;;;;3.87;2.67;;;2.40;99.90;;;;;;5073640;28;20938;-74
2020/12/30 07:49:31;;;;;;;4.93;2.72;;;2.50;99.90;;;;;;5074044;28;20214;-75
2020/12/30 07:51:59;;;;;;;2.72;2.03;;;2.60;99.90;;;;;;5073947;28;20676;-74
2020/12/30 07:54:26;;;;;;;2.75;2.13;;;2.60;99.90;;;;;;5074409;28;20323;-74
2020/12/30 07:56:59;;;;;;;2.22;2.03;;;2.70;99.90;;;;;;5073983;28;20186;-74
2020/12/30 07:59:25;;;;;;;2.75;2.05;;;2.70;99.90;;;;;;5074091;28;20190;-75
2020/12/30 08:01:56;;;;;;;2.85;2.08;;;2.80;99.90;;;;;;5073541;28;20192;-74
2020/12/30 08:04:22;;;;;;;2.95;2.40;;;2.80;99.90;;;;;;5073785;28;20181;-74
2020/12/30 08:06:48;;;;;;;2.63;2.07;;;2.70;99.90;;;;;;5073698;28;20189;-73
2020/12/30 08:09:14;;;;;;;2.57;2.33;;;2.70;99.90;;;;;;5073552;28;20221;-74
2020/12/30 08:11:59;;;;;;;2.83;2.60;;;2.70;99.90;;;;;;5073386;28;20244;-74
2020/12/30 08:14:28;;;;;;;3.83;3.50;;;2.70;99.90;;;;;;5068539;28;20192;-73
2020/12/30 08:17:01;;;;;;;4.72;4.13;;;2.70;99.90;;;;;;5073589;28;20182;-74
2020/12/30 08:19:36;;;;;;;4.65;4.25;;;2.70;99.90;;;;;;5073539;28;20174;-74
2020/12/30 08:22:09;;;;;;;13.20;9.52;;;2.70;99.90;;;;;;5073588;28;20181;-73
2020/12/30 08:24:46;;;;;;;6.88;5.90;;;2.70;99.90;;;;;;5073751;28;20637;-74
2020/12/30 08:27:20;;;;;;;8.90;6.07;;;2.70;99.90;;;;;;5066928;28;20262;-74
2020/12/30 08:29:46;;;;;;;13.77;7.88;;;2.80;99.90;;;;;;5073398;28;20217;-74
2020/12/30 08:32:33;;;;;;;6.88;5.20;;;3.00;99.90;;;;;;5068842;28;20186;-74
2020/12/30 08:35:18;;;;;;;12.18;9.07;;;3.20;99.90;;;;;;5073164;28;20189;-74
2020/12/30 08:38:02;;;;;;;8.10;4.80;;;3.30;99.90;;;;;;5071755;28;20668;-74
2020/12/30 08:40:34;;;;;;;7.00;6.00;;;3.50;99.90;;;;;;5066884;28;20182;-74
2020/12/30 08:43:20;;;;;;;8.48;7.13;;;3.60;99.90;;;;;;5067829;28;20182;-74
2020/12/30 08:46:00;;;;;;;6.95;5.53;;;3.80;99.90;;;;;;5073307;28;20196;-74
2020/12/30 08:48:29;;;;;;;4.28;3.42;;;3.90;99.90;;;;;;5066289;28;20267;-74
2020/12/30 08:50:55;;;;;;;5.35;4.82;;;4.00;99.90;;;;;;5068814;28;20218;-74
2020/12/30 08:53:47;;;;;;;6.40;4.80;;;4.10;99.90;;;;;;5068688;28;20181;-75
2020/12/30 08:56:18;;;;;;;4.75;4.10;;;4.20;99.90;;;;;;5065634;28;20262;-74
2020/12/30 08:58:51;;;;;;;7.78;3.60;;;4.30;99.90;;;;;;5074380;28;20189;-74
2020/12/30 09:01:21;;;;;;;3.70;2.95;;;4.30;99.90;;;;;;5070922;28;20178;-74
2020/12/30 09:03:46;;;;;;;4.10;3.30;;;4.30;99.90;;;;;;5069263;28;20311;-74
2020/12/30 09:06:24;;;;;;;6.53;5.40;;;4.30;99.90;;;;;;5071674;28;20677;-74
2020/12/30 09:08:50;;;;;;;7.55;5.07;;;4.30;99.90;;;;;;5074371;28;20674;-74
2020/12/30 09:11:19;;;;;;;6.43;4.83;;;4.40;99.90;;;;;;5069803;28;20304;-74
2020/12/30 09:13:45;;;;;;;5.70;4.60;;;4.40;99.90;;;;;;5067708;28;20179;-74
2020/12/30 09:16:11;;;;;;;25.20;16.60;;;4.50;99.90;;;;;;5067530;28;20197;-76
2020/12/30 09:18:36;;;;;;;5.57;4.97;;;4.60;99.90;;;;;;5068566;28;20174;-73
2020/12/30 09:21:02;;;;;;;4.73;4.10;;;4.60;99.90;;;;;;5068185;28;20190;-73
2020/12/30 09:23:28;;;;;;;3.50;3.17;;;4.70;99.90;;;;;;5068956;28;20209;-73
2020/12/30 09:25:56;;;;;;;5.30;3.40;;;4.70;99.90;;;;;;5069066;28;20186;-73
2020/12/30 09:28:25;;;;;;;4.22;3.22;;;4.70;99.90;;;;;;5068610;28;20265;-73
2020/12/30 09:30:53;;;;;;;4.57;4.10;;;4.80;99.90;;;;;;5066157;28;20368;-75
2020/12/30 09:33:21;;;;;;;3.97;3.60;;;4.90;99.90;;;;;;5069630;28;20178;-74
2020/12/30 09:35:48;;;;;;;4.13;3.70;;;4.90;99.90;;;;;;5069216;28;20177;-74
2020/12/30 09:38:21;;;;;;;3.58;3.28;;;5.00;99.90;;;;;;5070037;28;20192;-74
2020/12/30 09:40:49;;;;;;;4.10;3.70;;;5.00;99.90;;;;;;5072695;28;20173;-74
2020/12/30 09:43:17;;;;;;;3.42;3.13;;;5.00;99.90;;;;;;5071763;28;20190;-75
2020/12/30 09:45:43;;;;;;;4.07;3.30;;;5.00;99.90;;;;;;5071046;28;20297;-74
2020/12/30 09:48:17;;;;;;;3.83;3.53;;;5.10;99.90;;;;;;5065955;28;20238;-74
2020/12/30 09:50:45;;;;;;;6.38;3.88;;;5.20;99.90;;;;;;5089862;28;20704;-74
2020/12/30 09:53:11;;;;;;;4.05;3.58;;;5.20;99.90;;;;;;5066704;28;20195;-74
2020/12/30 09:55:37;;;;;;;4.78;3.97;;;5.30;99.90;;;;;;5062362;28;20229;-76
2020/12/30 09:58:03;;;;;;;4.33;4.03;;;5.40;99.90;;;;;;5068892;28;20186;-74
2020/12/30 10:00:29;;;;;;;3.40;3.10;;;5.50;99.90;;;;;;5071884;28;20444;-74
2020/12/30 10:02:55;;;;;;;2.97;2.77;;;5.50;99.90;;;;;;5071403;28;20672;-74
2020/12/30 10:05:20;;;;;;;3.07;2.77;;;5.60;99.90;;;;;;5067616;28;20217;-74
2020/12/30 10:07:46;;;;;;;9.10;3.30;;;5.60;99.90;;;;;;5071991;28;20226;-74
2020/12/30 10:10:11;;;;;;;12.77;9.00;;;5.60;99.90;;;;;;5071313;28;20254;-74
2020/12/30 10:12:40;;;;;;;3.93;3.63;;;5.70;99.90;;;;;;5071447;28;20428;-74
2020/12/30 10:15:11;;;;;;;4.03;3.20;;;5.80;99.90;;;;;;5067636;28;20193;-74
2020/12/30 10:17:37;;;;;;;2.90;2.45;;;6.10;99.90;;;;;;5070064;28;20190;-75
2020/12/30 10:20:04;;;;;;;5.10;4.70;;;6.40;99.90;;;;;;5071944;28;20547;-74
2020/12/30 10:22:31;;;;;;;4.32;3.92;;;6.60;99.90;;;;;;5066940;28;20216;-74
2020/12/30 10:25:00;;;;;;;3.20;2.90;;;6.80;99.90;;;;;;5071282;28;20185;-74
2020/12/30 10:27:25;;;;;;;2.90;2.70;;;6.90;99.90;;;;;;5066439;28;20192;-74
2020/12/30 10:29:51;;;;;;;2.80;2.50;;;6.90;99.90;;;;;;5071522;28;20210;-74
2020/12/30 10:32:17;;;;;;;4.80;2.10;;;7.00;99.90;;;;;;5069074;28;20193;-74
2020/12/30 10:34:42;;;;;;;4.03;2.37;;;6.90;99.90;;;;;;5071046;28;20185;-75
2020/12/30 10:37:08;;;;;;;2.63;2.43;;;6.90;99.90;;;;;;5067024;28;20247;-74
2020/12/30 10:39:34;;;;;;;2.83;2.63;;;6.80;99.90;;;;;;5067389;28;20186;-74
2020/12/30 10:42:02;;;;;;;2.63;2.42;;;6.70;99.90;;;;;;5070842;28;20182;-77
2020/12/30 10:44:29;;;;;;;3.50;1.65;;;6.70;99.90;;;;;;5065990;28;20201;-74
2020/12/30 10:46:55;;;;;;;2.65;2.45;;;6.60;99.90;;;;;;5068647;28;20194;-74
2020/12/30 10:49:22;;;;;;;3.10;2.53;;;6.60;99.90;;;;;;5070149;28;20582;-73
2020/12/30 10:51:49;;;;;;;2.05;1.85;;;6.60;99.90;;;;;;5063365;28;20710;-73
2020/12/30 10:54:20;;;;;;;2.90;2.70;;;6.70;99.90;;;;;;5070335;28;20190;-73
2020/12/30 10:56:50;;;;;;;3.80;2.25;;;7.00;99.90;;;;;;5066685;28;20192;-73
2020/12/30 10:59:16;;;;;;;2.63;2.33;;;7.20;99.90;;;;;;5066671;28;20199;-73
2020/12/30 11:01:42;;;;;;;2.45;2.25;;;7.30;99.90;;;;;;5067271;28;20604;-73
2020/12/30 11:04:07;;;;;;;3.00;2.00;;;7.50;99.90;;;;;;5072055;28;20194;-73
2020/12/30 11:06:33;;;;;;;5.70;4.00;;;7.70;99.90;;;;;;5074126;28;20432;-73
2020/12/30 11:08:59;;;;;;;1.80;1.70;;;7.80;99.90;;;;;;5073679;28;20194;-73
2020/12/30 11:11:25;;;;;;;2.37;2.17;;;7.80;97.50;;;;;;5074577;28;20564;-73
2020/12/30 11:13:50;;;;;;;2.28;1.80;;;7.60;97.00;;;;;;5072822;28;20182;-73
2020/12/30 11:16:16;;;;;;;2.07;1.90;;;7.50;99.90;;;;;;5069881;28;20209;-73
2020/12/30 11:18:41;;;;;;;5.13;2.43;;;7.40;99.90;;;;;;5070548;28;20540;-74
2020/12/30 11:21:08;;;;;;;3.10;2.47;;;7.40;99.90;;;;;;5073335;28;20181;-73
2020/12/30 11:23:34;;;;;;;1.77;1.63;;;7.40;99.90;;;;;;5066141;28;20182;-74
2020/12/30 11:25:59;;;;;;;1.40;1.27;;;7.40;99.90;;;;;;5073570;28;20186;-73
2020/12/30 11:28:26;;;;;;;5.47;2.60;;;7.30;99.90;;;;;;5069196;28;20251;-75
2020/12/30 11:30:51;;;;;;;1.95;1.85;;;7.30;99.90;;;;;;5063586;28;20244;-73
2020/12/30 11:33:17;;;;;;;1.60;1.50;;;7.20;97.70;;;;;;5071082;28;20273;-73
2020/12/30 11:35:44;;;;;;;2.60;2.20;;;7.20;94.50;;;;;;5073128;28;20190;-74
2020/12/30 11:38:10;;;;;;;2.10;1.85;;;7.20;98.00;;;;;;5072551;28;20186;-73
2020/12/30 11:40:35;;;;;;;2.53;2.33;;;7.30;98.50;;;;;;5069578;28;20182;-73
2020/12/30 11:43:01;;;;;;;2.10;1.63;;;7.30;98.90;;;;;;5068546;28;20271;-73
2020/12/30 11:45:26;;;;;;;1.60;1.50;;;7.40;98.00;;;;;;5071418;28;20201;-73
2020/12/30 11:47:54;;;;;;;2.20;1.93;;;7.40;97.20;;;;;;5066794;28;20213;-73
2020/12/30 11:50:19;;;;;;;3.38;1.90;;;7.30;95.10;;;;;;5060583;28;20210;-73
2020/12/30 11:52:46;;;;;;;2.50;2.13;;;7.30;97.30;;;;;;5073559;28;20174;-73
2020/12/30 11:55:11;;;;;;;2.25;2.05;;;7.20;97.70;;;;;;5071837;28;20268;-73
2020/12/30 11:57:37;;;;;;;2.23;2.03;;;7.10;97.80;;;;;;5073906;28;20216;-73
2020/12/30 12:00:07;;;;;;;2.00;1.60;;;7.10;97.20;;;;;;5069610;28;20186;-72
2020/12/30 12:02:33;;;;;;;5.13;4.63;;;7.00;93.70;;;;;;5071826;28;20213;-73
2020/12/30 12:05:00;;;;;;;2.53;2.30;;;7.00;95.00;;;;;;5066953;28;20653;-73
2020/12/30 12:07:26;;;;;;;3.35;1.90;;;6.90;94.90;;;;;;5072699;28;20214;-73
2020/12/30 12:09:51;;;;;;;2.73;2.43;;;6.80;94.90;;;;;;5072961;28;20952;-73
2020/12/30 12:12:17;;;;;;;3.30;2.50;;;6.80;97.10;;;;;;5073074;28;20485;-73
2020/12/30 12:14:42;;;;;;;3.50;2.17;;;6.70;94.50;;;;;;5073025;28;20680;-73
2020/12/30 12:17:08;;;;;;;6.30;3.10;;;6.70;94.00;;;;;;5072544;28;20197;-73
2020/12/30 12:19:33;;;;;;;3.00;2.73;;;6.70;95.60;;;;;;5069162;28;20307;-73
2020/12/30 12:21:58;;;;;;;2.43;2.23;;;6.60;97.20;;;;;;5072298;28;20193;-73
2020/12/30 12:24:24;;;;;;;3.13;2.00;;;6.70;98.40;;;;;;5072944;28;20187;-73
2020/12/30 12:26:49;;;;;;;3.03;2.23;;;6.70;97.30;;;;;;5072884;28;20275;-73
2020/12/30 12:29:42;;;;;;;2.40;2.20;;;6.80;97.00;;;;;;5072807;28;20170;-73
2020/12/30 12:32:13;;;;;;;2.30;2.10;;;6.90;96.00;;;;;;5072072;28;20182;-73
2020/12/30 12:34:41;;;;;;;3.78;3.10;;;7.20;97.40;;;;;;5073426;28;20255;-73
2020/12/30 12:37:08;;;;;;;3.08;2.80;;;7.40;97.50;;;;;;5071115;28;20237;-73
2020/12/30 12:39:35;;;;;;;5.45;3.10;;;7.50;98.30;;;;;;5073234;28;20182;-73
2020/12/30 12:42:02;;;;;;;2.78;2.58;;;7.60;97.80;;;;;;5071712;28;20182;-73
2020/12/30 12:44:29;;;;;;;2.35;2.15;;;7.60;96.70;;;;;;5072810;28;20182;-73
2020/12/30 12:46:54;;;;;;;2.22;2.13;;;7.60;98.20;;;;;;5071942;28;20538;-73
2020/12/30 12:49:20;;;;;;;3.00;2.70;;;7.60;97.20;;;;;;5072280;28;20197;-73
2020/12/30 12:51:50;;;;;;;3.40;2.37;;;7.80;98.50;;;;;;5072795;28;20185;-73
2020/12/30 12:54:16;;;;;;;2.42;2.22;;;7.90;99.50;;;;;;5068627;28;20593;-73
2020/12/30 12:56:42;;;;;;;23.93;18.63;;;8.00;98.30;;;;;;5071708;28;20240;-73
2020/12/30 12:59:08;;;;;;;5.43;4.50;;;8.20;99.60;;;;;;5071570;28;20428;-73
2020/12/30 13:01:33;;;;;;;4.82;2.72;;;8.40;99.30;;;;;;5072042;28;20181;-73
2020/12/30 13:03:59;;;;;;;2.60;2.40;;;8.50;99.20;;;;;;5072120;28;20178;-73